Terminal Aerodrome Forecast
Issued by NWS Dallas/Fort Worth, TX

Home | Current Version | Previous Version | Text Only | Print | Product List | Glossary On
Versions: 1 2 3 4 5 6 7 8 9 10 11 12 13 14 15 16 17 18 19 20 21 22 23 24 25 26 27 28 29 30 31 32 33 34 35 36 37
000
FTUS44 KFWD 240320 AAA
TAFACT
TAF AMD
KACT 240320Z 2403/2424 15012KT P6SM -RA VCTS SCT040CB BKN090
      TEMPO 2403/2407 4SM TSRA BR OVC025CB
     FM240800 15016KT 3SM TSRA BR OVC014CB
      TEMPO 2408/2412 1SM +TSRA BR OVC008CB
     FM241600 16018KT P6SM -RA BKN022
     FM241900 18017KT P6SM OVC040=

USA.gov is the U.S. government's official web portal to all federal, state and local government web resources and services.